createdAt,value
2023-04-20T00:02:46.666Z,100720.38
2023-04-20T00:07:48.538Z,100716.56
2023-04-20T00:12:51.572Z,100708.38
2023-04-20T00:17:53.223Z,100703.00
2023-04-20T00:22:54.907Z,100703.00
2023-04-20T00:27:58.125Z,100690.72
2023-04-20T00:32:59.769Z,100678.91
2023-04-20T00:38:01.473Z,100679.19
2023-04-20T00:43:10.790Z,100671.59
2023-04-20T00:48:13.113Z,100660.44
2023-04-20T00:53:15.174Z,100654.34
2023-04-20T00:58:18.234Z,100645.56
2023-04-20T01:03:20.216Z,100640.00
2023-04-20T01:08:26.060Z,100634.94
2023-04-20T01:13:29.161Z,100624.38
2023-04-20T01:18:41.637Z,100611.56
2023-04-20T01:23:45.094Z,100609.88
2023-04-20T01:28:46.870Z,100595.47
2023-04-20T01:33:48.581Z,100591.94
2023-04-20T01:38:51.928Z,100594.63
2023-04-20T01:43:53.759Z,100585.78
2023-04-20T01:48:55.414Z,100591.38
2023-04-20T01:53:58.479Z,100586.41
2023-04-20T01:59:00.251Z,100581.00
2023-04-20T02:04:02.067Z,100588.03
2023-04-20T02:09:05.304Z,100574.34
2023-04-20T02:14:07.214Z,100572.50
2023-04-20T02:19:08.841Z,100575.31
2023-04-20T02:24:12.750Z,100574.00
2023-04-20T02:29:16.839Z,100562.47
2023-04-20T02:34:22.320Z,100555.72
2023-04-20T02:39:28.390Z,100560.25
2023-04-20T02:44:29.992Z,100557.66
2023-04-20T02:49:34.641Z,100553.09
2023-04-20T02:54:37.863Z,100557.16
2023-04-20T02:59:41.878Z,100550.19
2023-04-20T03:04:43.728Z,100550.75
2023-04-20T03:09:46.824Z,100533.44
2023-04-20T03:14:48.496Z,100533.78
2023-04-20T03:19:51.296Z,100527.31
2023-04-20T03:24:54.240Z,100520.84
2023-04-20T03:29:55.863Z,100522.91
2023-04-20T03:34:57.537Z,100515.53
2023-04-20T03:40:00.504Z,100511.13
2023-04-20T03:45:02.086Z,100512.53
2023-04-20T03:50:04.330Z,100508.47
2023-04-20T03:55:08.283Z,100507.41
2023-04-20T04:00:11.189Z,100507.44
2023-04-20T04:05:13.208Z,100504.03
2023-04-20T04:10:16.361Z,100508.53
2023-04-20T04:15:17.976Z,100494.22
2023-04-20T04:20:19.765Z,100497.44
2023-04-20T04:25:22.759Z,100487.00
2023-04-20T04:30:25.922Z,100496.56
2023-04-20T04:35:27.760Z,100498.72
2023-04-20T04:40:30.835Z,100490.59
2023-04-20T04:45:32.431Z,100482.63
2023-04-20T04:50:34.112Z,100488.72
2023-04-20T04:55:37.190Z,100479.84
2023-04-20T05:00:38.934Z,100481.56
2023-04-20T05:05:40.749Z,100489.13
2023-04-20T05:10:43.853Z,100492.97
2023-04-20T05:15:45.445Z,100490.63
2023-04-20T05:20:47.040Z,100491.50
2023-04-20T05:25:50.258Z,100492.03
2023-04-20T05:30:52.270Z,100492.59
2023-04-20T05:35:56.014Z,100489.13
2023-04-20T05:40:59.252Z,100486.03
2023-04-20T05:46:00.855Z,100482.28
2023-04-20T05:51:02.672Z,100490.25
2023-04-20T05:56:06.828Z,100482.91
2023-04-20T06:01:08.435Z,100482.72
2023-04-20T06:06:10.155Z,100488.41
2023-04-20T06:11:13.130Z,100484.72
2023-04-20T06:16:14.804Z,100473.38
2023-04-20T06:21:16.975Z,100479.09
2023-04-20T06:26:19.941Z,100476.19
2023-04-20T06:31:22.355Z,100478.31
2023-04-20T06:36:24.046Z,100473.34
2023-04-20T06:41:27.385Z,100468.06
2023-04-20T06:46:29.238Z,100465.56
2023-04-20T06:51:32.287Z,100471.88
2023-04-20T06:56:35.767Z,100470.81
2023-04-20T07:01:37.524Z,100471.88
2023-04-20T07:06:39.556Z,100465.13
2023-04-20T07:11:42.523Z,100465.84
2023-04-20T07:16:44.638Z,100465.97
2023-04-20T07:21:46.426Z,100471.56
2023-04-20T07:26:49.449Z,100468.28
2023-04-20T07:31:51.145Z,100460.59
2023-04-20T07:36:52.875Z,100463.25
2023-04-20T07:41:56.617Z,100470.41
2023-04-20T07:46:58.305Z,100474.50
2023-04-20T07:52:12.774Z,100473.31
2023-04-20T07:57:19.208Z,100472.94
2023-04-20T08:02:21.090Z,100471.66
2023-04-20T08:07:24.014Z,100474.19
2023-04-20T08:12:27.468Z,100466.88
2023-04-20T08:17:29.384Z,100461.38
2023-04-20T08:22:41.382Z,100451.28
2023-04-20T08:27:45.179Z,100445.03
2023-04-20T08:32:47.485Z,100443.00
2023-04-20T08:37:49.685Z,100440.72
2023-04-20T08:42:53.121Z,100444.16
2023-04-20T08:47:58.275Z,100443.03
2023-04-20T08:59:20.518Z,100453.78
2023-04-20T09:04:24.233Z,100447.13
2023-04-20T09:09:27.065Z,100446.03
2023-04-20T09:14:30.928Z,100449.97
2023-04-20T09:19:33.505Z,100458.69
2023-04-20T09:24:39.828Z,100448.94
2023-04-20T09:29:43.377Z,100460.22
2023-04-20T09:34:45.337Z,100457.88
2023-04-20T09:39:47.454Z,100458.63
2023-04-20T09:44:52.864Z,100461.13
2023-04-20T09:49:56.186Z,100464.72
2023-04-20T09:54:58.425Z,100455.66
2023-04-20T10:00:06.229Z,100449.00
2023-04-20T10:05:08.059Z,100450.22
2023-04-20T10:10:11.449Z,100440.34
2023-04-20T10:15:14.509Z,100434.72
2023-04-20T10:20:26.913Z,100419.38
2023-04-20T10:25:28.726Z,100413.72
2023-04-20T10:30:33.233Z,100408.41
2023-04-20T10:35:43.358Z,100408.69
2023-04-20T10:40:46.981Z,100407.66
2023-04-20T10:45:50.535Z,100393.38
2023-04-20T10:50:52.256Z,100390.63
2023-04-20T10:56:00.203Z,100382.00
2023-04-20T11:01:05.270Z,100374.56
2023-04-20T11:06:07.195Z,100369.00
2023-04-20T11:11:27.086Z,100353.88
2023-04-20T11:16:44.209Z,100344.41
2023-04-20T11:21:52.844Z,100336.28
2023-04-20T11:26:55.399Z,100327.66
2023-04-20T11:31:59.529Z,100315.94
2023-04-20T11:37:04.405Z,100312.84
2023-04-20T11:42:06.760Z,100300.34
2023-04-20T11:47:10.032Z,100310.19
2023-04-20T11:52:12.445Z,100297.53
2023-04-20T11:57:14.254Z,100290.72
2023-04-20T12:02:17.579Z,100296.44
2023-04-20T12:07:19.343Z,100276.53
2023-04-20T12:12:21.033Z,100270.41
2023-04-20T12:17:24.204Z,100278.56
2023-04-20T12:22:26.257Z,100274.09
2023-04-20T12:27:27.940Z,100264.47
2023-04-20T12:32:31.045Z,100259.84
2023-04-20T12:37:32.745Z,100251.31
2023-04-20T12:42:34.356Z,100251.84
2023-04-20T12:47:37.431Z,100260.09
2023-04-20T12:52:39.074Z,100252.38
2023-04-20T12:57:40.678Z,100261.75
2023-04-20T13:02:43.889Z,100259.09
2023-04-20T13:07:45.739Z,100255.69
2023-04-20T13:12:47.365Z,100259.31
2023-04-20T13:17:50.527Z,100256.00
2023-04-20T13:22:57.585Z,100272.75
2023-04-20T13:28:01.458Z,100252.09
2023-04-20T13:33:10.303Z,100260.41
2023-04-20T13:38:12.094Z,100247.91
2023-04-20T13:43:14.060Z,100226.53
2023-04-20T13:48:17.080Z,100230.81
2023-04-20T13:53:18.836Z,100236.34
2023-04-20T13:58:20.486Z,100218.66
2023-04-20T14:03:25.647Z,100203.41
2023-04-20T14:08:27.609Z,100215.13
2023-04-20T14:13:29.332Z,100210.91
2023-04-20T14:18:32.392Z,100203.16
2023-04-20T14:23:34.034Z,100205.81
2023-04-20T14:28:35.785Z,100189.22
2023-04-20T14:33:38.837Z,100180.44
2023-04-20T14:38:40.644Z,100179.34
2023-04-20T14:43:42.231Z,100169.81
2023-04-20T14:48:45.306Z,100156.06
2023-04-20T14:53:47.032Z,100161.81
2023-04-20T14:58:48.765Z,100168.09
2023-04-20T15:03:52.068Z,100201.56
2023-04-20T15:08:54.279Z,100225.75
2023-04-20T15:13:55.936Z,100233.13
2023-04-20T15:18:58.980Z,100229.81
2023-04-20T15:24:00.700Z,100208.59
2023-04-20T15:29:02.429Z,100208.34
2023-04-20T15:34:05.646Z,100200.53
2023-04-20T15:39:07.440Z,100193.38
2023-04-20T15:44:09.126Z,100198.56
2023-04-20T15:49:12.186Z,100208.00
2023-04-20T15:54:13.911Z,100209.81
2023-04-20T15:59:15.527Z,100225.78
2023-04-20T16:04:18.926Z,100221.16
2023-04-20T16:09:22.338Z,100232.41
2023-04-20T16:14:25.331Z,100226.81
2023-04-20T16:19:28.398Z,100225.16
2023-04-20T16:24:30.111Z,100231.84
2023-04-20T16:29:31.802Z,100238.06
2023-04-20T16:34:34.955Z,100240.97
2023-04-20T16:39:36.554Z,100232.22
2023-04-20T16:44:39.711Z,100237.34
2023-04-20T16:49:44.727Z,100231.06
2023-04-20T16:54:46.323Z,100227.47
2023-04-20T16:59:47.954Z,100233.88
2023-04-20T17:04:50.961Z,100237.88
2023-04-20T17:09:52.642Z,100230.25
2023-04-20T17:14:55.093Z,100232.34
2023-04-20T17:19:58.286Z,100228.09
2023-04-20T17:25:00.322Z,100234.66
2023-04-20T17:30:01.971Z,100247.28
2023-04-20T17:35:06.022Z,100248.97
2023-04-20T17:40:09.660Z,100246.38
2023-04-20T17:45:11.760Z,100248.91
2023-04-20T17:50:14.956Z,100245.03
2023-04-20T17:55:16.648Z,100250.47
2023-04-20T18:00:18.799Z,100254.84
2023-04-20T18:05:22.026Z,100250.53
2023-04-20T18:10:23.711Z,100256.69
2023-04-20T18:15:25.490Z,100274.78
2023-04-20T18:20:30.015Z,100270.50
2023-04-20T18:25:33.541Z,100264.44
2023-04-20T18:30:35.229Z,100269.00
2023-04-20T18:35:38.417Z,100267.22
2023-04-20T18:40:40.214Z,100272.72
2023-04-20T18:45:41.865Z,100271.09
2023-04-20T18:50:47.346Z,100272.50
2023-04-20T18:55:49.578Z,100280.19
2023-04-20T19:00:51.294Z,100271.84
2023-04-20T19:05:54.326Z,100267.91
2023-04-20T19:10:55.984Z,100276.84
2023-04-20T19:15:57.785Z,100271.38
2023-04-20T19:21:00.855Z,100268.38
2023-04-20T19:26:02.742Z,100262.53
2023-04-20T19:31:04.700Z,100275.53
2023-04-20T19:36:07.763Z,100296.75
2023-04-20T19:41:09.371Z,100292.56
2023-04-20T19:46:11.042Z,100295.56
2023-04-20T19:51:14.021Z,100291.13
2023-04-20T19:56:15.680Z,100297.94
2023-04-20T20:01:17.332Z,100298.13
2023-04-20T20:06:20.345Z,100293.41
2023-04-20T20:11:21.998Z,100285.72
2023-04-20T20:16:23.762Z,100287.19
2023-04-20T20:21:26.821Z,100300.47
2023-04-20T20:26:28.504Z,100283.81
2023-04-20T20:31:30.228Z,100297.72
2023-04-20T20:36:33.274Z,100281.16
2023-04-20T20:41:34.992Z,100302.19
2023-04-20T20:46:36.964Z,100299.31
2023-04-20T20:51:40.104Z,100278.28
2023-04-20T20:56:41.838Z,100282.09
2023-04-20T21:01:43.429Z,100285.44
2023-04-20T21:06:47.058Z,100288.56
2023-04-20T21:11:48.717Z,100285.81
2023-04-20T21:16:50.436Z,100275.19
2023-04-20T21:21:53.412Z,100268.94
2023-04-20T21:26:55.156Z,100269.19
2023-04-20T21:31:56.944Z,100256.84
2023-04-20T21:36:59.922Z,100255.28
2023-04-20T21:42:01.602Z,100266.03
2023-04-20T21:47:03.505Z,100278.38
2023-04-20T21:52:06.581Z,100273.13
2023-04-20T21:57:08.170Z,100280.97
2023-04-20T22:02:09.903Z,100261.84
2023-04-20T22:07:12.935Z,100247.97
2023-04-20T22:12:14.700Z,100240.16
2023-04-20T22:17:16.334Z,100227.00
2023-04-20T22:22:19.289Z,100227.25
2023-04-20T22:27:20.860Z,100227.94
2023-04-20T22:32:22.551Z,100218.88
2023-04-20T22:37:25.522Z,100224.50
2023-04-20T22:42:27.215Z,100224.22
2023-04-20T22:47:28.866Z,100228.41
2023-04-20T22:52:32.080Z,100228.88
2023-04-20T22:57:34.199Z,100218.50
2023-04-20T23:02:36.352Z,100208.09
2023-04-20T23:07:39.922Z,100216.19
2023-04-20T23:12:42.453Z,100210.47
2023-04-20T23:17:44.402Z,100205.47
2023-04-20T23:22:47.393Z,100210.97
2023-04-20T23:27:48.964Z,100210.03
2023-04-20T23:32:50.720Z,100214.50
2023-04-20T23:37:53.771Z,100214.00
2023-04-20T23:42:55.365Z,100209.50
2023-04-20T23:47:57.013Z,100205.34
2023-04-20T23:53:00.076Z,100208.34
2023-04-20T23:58:01.731Z,100190.28
